Time;durP1;ratioP1;P1;durP2;ratioP2;P2;SDS_P1;SDS_P2;PMS_P1;PMS_P2;Temp;Humidity;BMP_temperature;BMP_pressure;BME280_temperature;BME280_humidity;BME280_pressure;Samples;Min_cycle;Max_cycle;Signal;HPM_P1;HPM_P2
2022/11/06 00:00:03;;;;;;;;;24.75;22.00;;;;;20.91;62.89;100846.56;5058328;28;45386;-39
2022/11/06 00:02:29;;;;;;;;;21.75;20.00;;;;;20.90;63.12;100843.03;5059986;28;45381;-39
2022/11/06 00:06:46;;;;;;;;;27.25;23.75;;;;;20.90;63.46;100843.03;5059948;28;45326;-40
2022/11/06 00:07:40;;;;;;;;;21.00;18.75;;;;;20.89;63.30;100818.28;5058850;28;45387;-39
2022/11/06 00:10:05;;;;;;;;;23.00;21.25;;;;;20.89;63.32;100818.28;5059171;28;70838;-39
2022/11/06 00:12:30;;;;;;;;;27.75;24.25;;;;;20.88;63.51;100811.25;5059933;28;45517;-38
2022/11/06 00:14:56;;;;;;;;;24.00;23.00;;;;;20.89;63.11;100814.78;5059241;28;67112;-40
2022/11/06 00:17:21;;;;;;;;;22.75;21.25;;;;;20.89;63.17;100818.28;5059141;28;70589;-40
2022/11/06 00:19:47;;;;;;;;;23.75;21.25;;;;;20.89;63.60;100830.69;5058139;28;62658;-39
2022/11/06 00:22:12;;;;;;;;;23.00;18.50;;;;;20.87;63.02;100841.34;5059031;28;64816;-39
2022/11/06 00:24:37;;;;;;;;;24.00;19.25;;;;;20.88;63.29;100848.41;5059005;28;66723;-39
2022/11/06 00:27:03;;;;;;;;;25.00;21.50;;;;;20.87;63.10;100843.16;5057571;28;71419;-40
2022/11/06 00:29:28;;;;;;;;;23.50;21.25;;;;;20.85;62.94;100837.91;5058617;28;45208;-39
2022/11/06 00:31:53;;;;;;;;;25.00;20.00;;;;;20.85;63.16;100835.25;5059606;28;53333;-39
2022/11/06 00:34:19;;;;;;;;;23.75;22.50;;;;;20.85;62.87;100847.63;5074591;28;63903;-39
2022/11/06 00:36:44;;;;;;;;;24.00;17.75;;;;;20.85;63.01;100837.03;5059539;28;54645;-38
2022/11/06 00:39:10;;;;;;;;;24.50;23.00;;;;;20.85;62.83;100831.72;5058215;28;45181;-38
2022/11/06 00:41:35;;;;;;;;;18.75;18.00;;;;;20.84;62.63;100827.31;5058388;28;45523;-39
2022/11/06 00:44:01;;;;;;;;;23.75;18.75;;;;;20.84;62.83;100827.31;5058558;28;71251;-37
2022/11/06 00:46:26;;;;;;;;;17.75;17.00;;;;;20.85;62.56;100831.72;5059726;28;45288;-38
2022/11/06 00:48:52;;;;;;;;;9.25;6.50;;;;;20.84;62.75;100837.91;5058445;28;45489;-39
2022/11/06 00:51:22;;;;;;;;;18.75;18.75;;;;;20.83;62.92;100829.09;5059413;28;45309;-38
2022/11/06 00:53:57;;;;;;;;;23.50;20.75;;;;;20.83;62.58;100818.47;5059509;28;45214;-39
2022/11/06 00:56:23;;;;;;;;;21.00;18.25;;;;;20.82;62.57;100808.78;5058149;28;46445;-39
2022/11/06 00:58:48;;;;;;;;;23.00;19.00;;;;;20.82;62.81;100799.97;5059424;28;45280;-39
2022/11/06 01:01:24;;;;;;;;;18.25;17.25;;;;;20.82;62.83;100800.81;5058238;28;45487;-39
2022/11/06 01:03:55;;;;;;;;;19.25;17.50;;;;;20.81;62.42;100788.50;5046870;28;45209;-39
2022/11/06 01:06:21;;;;;;;;;21.00;17.50;;;;;20.81;62.74;100801.75;5059251;28;46315;-39
2022/11/06 01:08:47;;;;;;;;;21.50;20.25;;;;;20.81;62.85;100801.75;5058083;28;45299;-39
2022/11/06 01:11:16;;;;;;;;;20.75;19.25;;;;;20.81;62.94;100806.19;5057233;28;69641;-37
2022/11/06 01:13:42;;;;;;;;;23.75;18.00;;;;;20.80;62.54;100802.66;5061399;28;45910;-37
2022/11/06 01:16:09;;;;;;;;;20.00;20.00;;;;;20.81;62.61;100779.66;5062550;28;45436;-39
2022/11/06 01:18:35;;;;;;;;;22.75;17.50;;;;;20.80;62.84;100767.31;5062635;28;45351;-39
2022/11/06 01:21:17;;;;;;;;;20.00;19.00;;;;;20.80;62.44;100772.63;5031311;28;45336;-39
2022/11/06 01:23:42;;;;;;;;;17.75;17.50;;;;;20.80;62.29;100773.50;5062393;28;45346;-37
2022/11/06 01:26:09;;;;;;;;;17.50;15.00;;;;;20.79;62.52;100778.84;5062193;28;51622;-37
2022/11/06 01:28:35;;;;;;;;;21.25;18.00;;;;;20.78;62.55;100777.97;5062721;28;45315;-37
2022/11/06 01:31:04;;;;;;;;;23.25;20.00;;;;;20.78;62.91;100777.97;5062514;28;45337;-37
2022/11/06 01:33:30;;;;;;;;;20.00;18.75;;;;;20.78;62.98;100772.69;5062452;28;45394;-37
2022/11/06 01:35:55;;;;;;;;;19.25;17.25;;;;;20.78;62.34;100775.34;5062039;28;53033;-38
2022/11/06 01:38:20;;;;;;;;;17.50;16.75;;;;;20.78;62.75;100775.34;5061096;28;73378;-38
2022/11/06 01:40:46;;;;;;;;;19.75;16.25;;;;;20.78;62.55;100777.97;5060331;28;61625;-38
2022/11/06 01:43:23;;;;;;;;;21.00;19.00;;;;;20.78;62.69;100780.63;5062162;28;45363;-38
2022/11/06 01:45:50;;;;;;;;;15.75;14.75;;;;;20.78;62.62;100777.97;5060776;28;45391;-38
2022/11/06 01:48:17;;;;;;;;;17.50;16.50;;;;;20.78;62.48;100777.97;5060788;28;45330;-37
2022/11/06 01:50:45;;;;;;;;;18.75;16.25;;;;;20.78;61.81;100777.97;5060599;28;45525;-38
2022/11/06 01:53:11;;;;;;;;;17.25;15.00;;;;;20.78;62.10;100779.78;5060749;28;45318;-38
2022/11/06 01:55:43;;;;;;;;;15.75;13.75;;;;;20.77;62.55;100767.44;5040509;28;46431;-39
2022/11/06 01:58:09;;;;;;;;;18.00;17.25;;;;;20.77;62.59;100767.44;5055044;28;45290;-39
2022/11/06 02:00:35;;;;;;;;;19.00;15.00;;;;;20.77;62.81;100756.81;5062406;28;45157;-38
2022/11/06 02:03:00;;;;;;;;;16.25;13.50;;;;;20.76;62.55;100749.75;5059833;28;63860;-38
2022/11/06 02:05:25;;;;;;;;;19.25;15.75;;;;;20.76;62.22;100748.00;5060677;28;45214;-38
2022/11/06 02:07:51;;;;;;;;;17.75;15.25;;;;;20.77;62.39;100743.56;5042595;28;70962;-38
2022/11/06 02:10:16;;;;;;;;;12.50;12.25;;;;;20.76;62.02;100742.69;5061388;28;62653;-38
2022/11/06 02:13:19;;;;;;;;;14.00;12.25;;;;;20.76;62.17;100731.19;5059613;28;67030;-39
2022/11/06 02:15:51;;;;;;;;;16.25;16.00;;;;;20.76;62.82;100724.13;5060849;28;46155;-38
2022/11/06 02:18:29;;;;;;;;;18.50;15.50;;;;;20.76;62.89;100718.81;5043850;28;45363;-39
2022/11/06 02:21:07;;;;;;;;;16.00;14.00;;;;;20.77;62.70;100711.72;5060593;28;45235;-39
2022/11/06 02:23:43;;;;;;;;;14.33;14.00;;;;;20.76;62.71;100700.25;5060820;28;45386;-40
2022/11/06 02:26:27;;;;;;;;;12.25;12.25;;;;;20.77;62.58;100691.38;5060374;28;47277;-38
2022/11/06 02:28:56;;;;;;;;;16.00;16.00;;;;;20.75;62.15;100673.75;5061718;28;45336;-38
2022/11/06 02:31:25;;;;;;;;;15.50;14.25;;;;;20.76;62.42;100684.34;5060233;28;45283;-38
2022/11/06 02:33:57;;;;;;;;;15.75;13.75;;;;;20.77;62.51;100685.22;5043575;28;45505;-38
2022/11/06 02:36:26;;;;;;;;;14.50;14.50;;;;;20.76;62.35;100694.94;5043732;28;45249;-38
2022/11/06 02:38:56;;;;;;;;;12.00;11.25;;;;;20.77;62.41;100694.03;5043317;28;45165;-38
2022/11/06 02:41:28;;;;;;;;;14.25;13.00;;;;;20.76;62.39;100694.94;5027003;28;45182;-38
2022/11/06 02:43:54;;;;;;;;;14.50;10.75;;;;;20.76;62.58;100699.34;5059972;28;45311;-38
2022/11/06 02:46:27;;;;;;;;;17.00;13.25;;;;;20.75;62.18;100698.50;5043220;28;46396;-39
2022/11/06 02:48:57;;;;;;;;;12.25;10.25;;;;;20.76;62.22;100700.25;5059807;28;46144;-38
2022/11/06 02:51:25;;;;;;;;;12.75;12.75;;;;;20.76;62.19;100699.34;5039670;28;45270;-38
2022/11/06 02:53:50;;;;;;;;;12.00;10.75;;;;;20.76;62.33;100692.31;5039307;28;48719;-38
2022/11/06 02:56:18;;;;;;;;;12.00;11.50;;;;;20.76;62.44;100679.03;5052492;28;49140;-38
2022/11/06 02:58:47;;;;;;;;;14.00;12.25;;;;;20.76;62.04;100699.34;5060707;28;47670;-38
2022/11/06 03:01:29;;;;;;;;;15.25;12.25;;;;;20.75;61.83;100693.19;5060014;28;45197;-38
2022/11/06 03:03:57;;;;;;;;;13.25;9.00;;;;;20.75;61.85;100692.31;5060822;28;45407;-38
2022/11/06 03:06:41;;;;;;;;;10.75;10.75;;;;;20.74;61.52;100685.28;5059475;28;46288;-38
2022/11/06 03:09:09;;;;;;;;;12.25;12.00;;;;;20.73;61.98;100673.81;5060858;28;45311;-38
2022/11/06 03:11:37;;;;;;;;;13.00;12.00;;;;;20.73;61.98;100675.59;5059585;28;45201;-38
2022/11/06 03:14:18;;;;;;;;;14.00;13.25;;;;;20.74;61.88;100680.84;5043357;28;45304;-38
2022/11/06 03:17:10;;;;;;;;;14.75;13.25;;;;;20.74;61.88;100664.94;5027186;28;45442;-39
2022/11/06 03:19:49;;;;;;;;;17.50;12.75;;;;;20.74;61.93;100648.16;5060702;28;45342;-39
2022/11/06 03:22:25;;;;;;;;;12.00;10.25;;;;;20.74;61.94;100656.97;5059663;28;45290;-38
2022/11/06 03:25:03;;;;;;;;;12.75;11.25;;;;;20.74;61.98;100648.16;5043644;28;45418;-38
2022/11/06 03:27:34;;;;;;;;;14.50;13.00;;;;;20.73;62.30;100652.59;5059188;28;45407;-38
2022/11/06 03:30:04;;;;;;;;;12.75;11.00;;;;;20.74;62.05;100656.13;5060732;28;45268;-38
2022/11/06 03:32:41;;;;;;;;;9.25;8.25;;;;;20.74;61.65;100649.03;5059395;28;45344;-38
2022/11/06 03:35:18;;;;;;;;;13.75;9.50;;;;;20.73;62.08;100642.00;5059338;28;49565;-38
2022/11/06 03:38:04;;;;;;;;;13.25;9.75;;;;;20.73;62.05;100638.47;5060209;28;46149;-38
2022/11/06 03:40:31;;;;;;;;;12.75;9.50;;;;;20.74;62.00;100637.53;5059972;28;45237;-38
2022/11/06 03:42:58;;;;;;;;;11.25;11.25;;;;;20.73;61.83;100636.69;5042770;28;45296;-38
2022/11/06 03:45:23;;;;;;;;;15.75;13.75;;;;;20.74;62.14;100635.75;5059227;28;45352;-38
2022/11/06 03:47:52;;;;;;;;;9.75;9.75;;;;;20.73;61.89;100636.69;5058696;28;58174;-38
2022/11/06 03:50:29;;;;;;;;;11.25;8.75;;;;;20.73;61.51;100647.28;5042165;28;45369;-38
2022/11/06 03:52:57;;;;;;;;;8.50;8.00;;;;;20.73;61.22;100647.28;5058929;28;45290;-38
2022/11/06 03:55:31;;;;;;;;;11.75;10.50;;;;;20.74;61.94;100645.50;5042545;28;45282;-38
2022/11/06 03:58:02;;;;;;;;;10.25;9.00;;;;;20.74;62.24;100621.63;5042145;28;47510;-39
2022/11/06 04:00:27;;;;;;;;;9.00;9.00;;;;;20.72;62.07;100615.53;5058882;28;45798;-38
2022/11/06 04:03:03;;;;;;;;;12.25;9.50;;;;;20.73;61.76;100610.16;5060181;28;45161;-38
2022/11/06 04:05:30;;;;;;;;;11.25;9.75;;;;;20.73;61.92;100601.34;5058858;28;45264;-38
2022/11/06 04:16:09;;;;;;;;;8.75;8.75;;;;;20.72;61.61;100604.91;5044907;28;45256;-38
2022/11/06 04:18:34;;;;;;;;;6.00;6.00;;;;;20.71;61.42;100590.78;5042110;28;46042;-38
2022/11/06 04:21:29;;;;;;;;;9.00;9.00;;;;;20.73;61.61;100590.72;5059163;28;67019;-38
2022/11/06 04:27:28;;;;;;;;;6.75;5.25;;;;;20.72;61.41;100610.22;5058945;28;45248;-38
2022/11/06 04:30:02;;;;;;;;;9.75;8.00;;;;;20.71;61.70;100595.22;5059896;28;46207;-38
2022/11/06 04:32:37;;;;;;;;;7.25;7.25;;;;;20.70;61.57;100581.09;5041694;28;45330;-37
2022/11/06 04:35:05;;;;;;;;;11.00;9.00;;;;;20.71;61.43;100595.22;5058756;28;45306;-38
2022/11/06 04:37:40;;;;;;;;;8.75;8.50;;;;;20.70;61.78;100596.16;5059517;28;45255;-37
2022/11/06 04:40:52;;;;;;;;;9.25;7.75;;;;;20.69;61.10;100582.03;5058485;28;45355;-37
2022/11/06 04:43:39;;;;;;;;;9.75;8.00;;;;;20.70;61.33;100593.50;5044606;28;45439;-37
2022/11/06 04:46:04;;;;;;;;;10.75;8.75;;;;;20.68;61.49;100590.91;5058366;28;45259;-37
2022/11/06 04:48:29;;;;;;;;;9.25;9.00;;;;;20.67;61.11;100594.44;5061959;28;73178;-37
2022/11/06 04:50:58;;;;;;;;;9.25;9.25;;;;;20.69;61.20;100584.69;5060634;28;71102;-38
2022/11/06 04:53:24;;;;;;;;;9.00;8.50;;;;;20.68;61.51;100580.31;5028318;28;45371;-38
2022/11/06 04:55:52;;;;;;;;;8.00;7.75;;;;;20.69;61.19;100575.84;5062485;28;63858;-38
2022/11/06 04:58:17;;;;;;;;;8.00;7.25;;;;;20.68;61.64;100577.66;5061553;28;45446;-38
2022/11/06 05:00:47;;;;;;;;;9.25;7.25;;;;;20.70;61.44;100577.59;5053467;28;71607;-38
2022/11/06 05:03:13;;;;;;;;;8.75;8.75;;;;;20.69;61.59;100571.41;5040425;28;45358;-38
2022/11/06 05:05:38;;;;;;;;;7.75;6.50;;;;;20.69;61.44;100575.84;5062740;28;45372;-38
2022/11/06 05:08:04;;;;;;;;;9.00;7.00;;;;;20.70;61.47;100566.97;5062529;28;45519;-38
2022/11/06 05:10:29;;;;;;;;;7.25;7.25;;;;;20.69;61.55;100560.81;5051719;28;70813;-38
2022/11/06 05:12:55;;;;;;;;;9.25;9.25;;;;;20.70;61.64;100557.25;5057044;28;69243;-38
2022/11/06 05:15:20;;;;;;;;;8.00;6.50;;;;;20.70;61.28;100559.88;5060786;28;64804;-38
2022/11/06 05:17:46;;;;;;;;;11.50;9.25;;;;;20.70;61.48;100557.25;5061630;28;70485;-38
2022/11/06 05:20:11;;;;;;;;;9.50;9.25;;;;;20.70;61.53;100562.53;5061270;28;47061;-38
2022/11/06 05:22:59;;;;;;;;;7.50;7.00;;;;;20.70;61.43;100561.69;5062289;28;45318;-37
2022/11/06 05:25:26;;;;;;;;;5.25;4.25;;;;;20.70;61.13;100561.69;5062659;28;45422;-38
2022/11/06 05:27:51;;;;;;;;;8.25;7.00;;;;;20.70;61.46;100554.59;5062253;28;47427;-38
2022/11/06 05:30:17;;;;;;;;;8.50;6.25;;;;;20.69;61.44;100544.03;5062362;28;45426;-38
2022/11/06 05:32:42;;;;;;;;;11.25;7.75;;;;;20.69;61.28;100536.94;5061672;28;64842;-38
2022/11/06 05:35:07;;;;;;;;;7.00;7.00;;;;;20.70;61.72;100525.41;5061813;28;65531;-38
2022/11/06 05:37:33;;;;;;;;;9.75;9.25;;;;;20.71;61.53;100526.28;5025620;28;45397;-38
2022/11/06 05:39:58;;;;;;;;;7.50;7.25;;;;;20.69;61.41;100514.88;5054166;28;64639;-38
2022/11/06 05:42:23;;;;;;;;;9.00;7.75;;;;;20.70;61.25;100524.56;5061159;28;73127;-38
2022/11/06 05:44:49;;;;;;;;;6.75;6.75;;;;;20.69;61.34;100515.72;5061977;28;53335;-38
2022/11/06 05:47:14;;;;;;;;;8.75;8.00;;;;;20.69;61.76;100513.06;5062174;28;45371;-38
2022/11/06 05:49:39;;;;;;;;;8.25;5.50;;;;;20.70;61.39;100512.16;5061167;28;70550;-38
2022/11/06 05:52:05;;;;;;;;;6.75;6.50;;;;;20.69;61.67;100517.50;5061193;28;63977;-37
2022/11/06 05:54:30;;;;;;;;;5.25;5.25;;;;;20.69;61.09;100522.81;5060307;28;63788;-38
2022/11/06 05:56:56;;;;;;;;;9.25;9.25;;;;;20.69;61.06;100522.81;5061980;28;45394;-38
2022/11/06 05:59:21;;;;;;;;;6.00;6.00;;;;;20.69;61.50;100517.50;5061050;28;46646;-38
2022/11/06 06:01:46;;;;;;;;;6.50;6.50;;;;;20.67;61.76;100514.91;5061748;28;50190;-38
2022/11/06 06:04:12;;;;;;;;;8.50;7.75;;;;;20.67;61.61;100512.25;5062316;28;45395;-38
2022/11/06 06:06:37;;;;;;;;;7.50;6.00;;;;;20.68;61.25;100521.97;5061626;28;51738;-38
2022/11/06 06:09:03;;;;;;;;;7.00;6.25;;;;;20.68;61.33;100515.78;5043670;28;48719;-37
2022/11/06 06:11:28;;;;;;;;;6.75;5.25;;;;;20.68;60.60;100515.78;5060929;28;65708;-38
2022/11/06 06:13:53;;;;;;;;;6.75;5.50;;;;;20.68;60.69;100510.47;5054734;28;51106;-38
2022/11/06 06:16:19;;;;;;;;;7.25;7.00;;;;;20.68;60.57;100515.78;5050723;28;67535;-38
2022/11/06 06:18:44;;;;;;;;;8.75;8.00;;;;;20.67;60.91;100503.41;5053498;28;48035;-38
2022/11/06 06:21:09;;;;;;;;;7.50;6.75;;;;;20.67;60.69;100493.69;5041399;28;60043;-38
2022/11/06 06:23:35;;;;;;;;;10.50;8.50;;;;;20.65;60.71;100497.31;5060414;28;45273;-38
2022/11/06 06:26:00;;;;;;;;;8.00;7.00;;;;;20.65;61.21;100492.88;5061069;28;54678;-38
2022/11/06 06:28:26;;;;;;;;;7.50;7.00;;;;;20.66;60.75;100489.31;5058896;28;71064;-38
2022/11/06 06:30:51;;;;;;;;;9.25;5.00;;;;;20.66;60.36;100484.00;5055196;28;71229;-37
2022/11/06 06:33:16;;;;;;;;;7.00;5.00;;;;;20.67;60.61;100471.59;5058429;28;67471;-38
2022/11/06 06:35:42;;;;;;;;;9.00;7.25;;;;;20.66;60.60;100468.09;5061739;28;45965;-38
2022/11/06 06:38:07;;;;;;;;;7.50;6.50;;;;;20.66;60.83;100449.53;5060383;28;64216;-37
2022/11/06 06:40:32;;;;;;;;;7.75;6.00;;;;;20.66;60.86;100459.28;5060364;28;45303;-38
2022/11/06 06:42:58;;;;;;;;;12.50;8.00;;;;;20.66;60.83;100457.47;5059711;28;56202;-38
2022/11/06 06:45:24;;;;;;;;;8.75;7.00;;;;;20.66;61.01;100448.66;5060639;28;65468;-38
2022/11/06 06:47:49;;;;;;;;;7.00;7.00;;;;;20.67;61.16;100442.44;5060049;28;45488;-38
2022/11/06 06:50:15;;;;;;;;;7.50;6.00;;;;;20.68;61.26;100452.16;5060175;28;67430;-38
2022/11/06 06:52:40;;;;;;;;;7.50;5.25;;;;;20.67;61.69;100451.25;5061107;28;45247;-37
2022/11/06 06:55:06;;;;;;;;;7.00;7.00;;;;;20.69;61.64;100444.13;5060259;28;73224;-38
2022/11/06 06:57:31;;;;;;;;;7.50;7.50;;;;;20.70;61.56;100434.38;5061100;28;46275;-37
2022/11/06 06:59:56;;;;;;;;;7.75;6.50;;;;;20.70;61.94;100429.94;5058076;28;68208;-38
2022/11/06 07:02:22;;;;;;;;;8.75;6.75;;;;;20.70;61.78;100423.78;5052269;28;64497;-38
2022/11/06 07:04:47;;;;;;;;;8.75;8.50;;;;;20.70;61.32;100418.47;5046654;28;59258;-37
2022/11/06 07:07:12;;;;;;;;;6.25;5.25;;;;;20.71;61.84;100421.06;5075900;28;68772;-37
2022/11/06 07:09:38;;;;;;;;;6.50;5.50;;;;;20.73;61.70;100421.00;5059626;28;45299;-41
2022/11/06 07:12:03;;;;;;;;;7.00;6.00;;;;;20.74;62.06;100436.84;5059519;28;66378;-46
2022/11/06 07:14:29;;;;;;;;;6.00;6.00;;;;;20.76;62.63;100439.44;5059989;28;45149;-49
2022/11/06 07:16:54;;;;;;;;;6.25;5.50;;;;;20.77;62.46;100434.09;5060009;28;69897;-48
2022/11/06 07:19:20;;;;;;;;;7.75;6.75;;;;;20.80;61.95;100428.66;5042904;28;45269;-45
2022/11/06 07:21:45;;;;;;;;;7.50;5.75;;;;;20.82;62.28;100418.00;5060051;28;45287;-50
2022/11/06 07:24:11;;;;;;;;;6.00;5.00;;;;;20.85;61.43;100418.75;5057908;28;63747;-48
2022/11/06 07:26:36;;;;;;;;;9.25;6.25;;;;;20.88;61.32;100426.59;5060154;28;46066;-49
2022/11/06 07:29:02;;;;;;;;;7.50;7.00;;;;;20.91;61.19;100428.25;5059380;28;55700;-50
2022/11/06 07:31:27;;;;;;;;;9.00;6.00;;;;;20.92;60.96;100424.66;5059428;28;53469;-49
2022/11/06 07:33:52;;;;;;;;;6.00;5.00;;;;;20.94;60.54;100414.88;5030846;28;67558;-48
2022/11/06 07:36:18;;;;;;;;;5.50;5.00;;;;;20.95;60.64;100416.63;5056509;28;69732;-47
2022/11/06 07:38:43;;;;;;;;;9.00;7.00;;;;;20.97;60.39;100405.94;5058517;28;45538;-46
2022/11/06 07:41:10;;;;;;;;;7.00;5.50;;;;;20.97;60.28;100401.50;5058188;28;45850;-48
2022/11/06 07:43:36;;;;;;;;;8.50;5.75;;;;;21.00;60.56;100388.09;5058849;28;45299;-47
2022/11/06 07:46:02;;;;;;;;;10.50;9.50;;;;;21.03;60.42;100408.38;5059924;28;45809;-51
2022/11/06 07:48:28;;;;;;;;;12.50;7.25;;;;;21.04;60.36;100410.09;5059096;28;45279;-50
2022/11/06 07:50:53;;;;;;;;;11.75;8.25;;;;;21.05;60.38;100417.13;5058303;28;58176;-48
2022/11/06 07:53:19;;;;;;;;;8.00;6.50;;;;;21.07;60.37;100420.56;5059027;28;45141;-47
2022/11/06 07:55:50;;;;;;;;;10.25;6.00;;;;;21.09;60.25;100410.75;5059591;28;66465;-47
2022/11/06 07:58:16;;;;;;;;;11.00;7.00;;;;;21.10;60.21;100412.47;5037989;28;45529;-48
2022/11/06 08:00:48;;;;;;;;;6.75;5.25;;;;;21.14;59.90;100404.34;5058611;28;45342;-48
2022/11/06 08:03:13;;;;;;;;;13.25;7.25;;;;;21.15;60.11;100408.72;5058523;28;45550;-48
2022/11/06 08:05:39;;;;;;;;;10.75;7.50;;;;;21.16;60.39;100404.28;5056944;28;46811;-49
2022/11/06 08:08:04;;;;;;;;;8.00;7.00;;;;;21.17;60.36;100400.69;5058566;28;68662;-49
2022/11/06 08:10:29;;;;;;;;;10.00;7.50;;;;;21.17;59.86;100403.34;5041373;28;60186;-46
2022/11/06 08:12:55;;;;;;;;;8.00;6.50;;;;;21.17;59.92;100406.88;5057524;28;74247;-47
2022/11/06 08:15:20;;;;;;;;;7.75;6.75;;;;;21.18;59.65;100405.06;5037261;28;72726;-49
2022/11/06 08:17:46;;;;;;;;;9.50;7.75;;;;;21.18;59.83;100394.47;5054143;28;59251;-49
2022/11/06 08:20:11;;;;;;;;;8.25;6.00;;;;;21.19;59.76;100390.88;5057305;28;45712;-48
2022/11/06 08:22:37;;;;;;;;;10.50;6.25;;;;;21.20;59.48;100392.63;5048005;28;59400;-47
2022/11/06 08:25:02;;;;;;;;;12.00;8.00;;;;;21.20;59.62;100379.38;5061508;28;46861;-51
2022/11/06 08:27:28;;;;;;;;;8.00;7.25;;;;;21.21;59.59;100373.13;5061786;28;45291;-49
2022/11/06 08:29:53;;;;;;;;;11.00;7.25;;;;;21.23;59.56;100371.28;5062647;28;45215;-46
2022/11/06 08:32:18;;;;;;;;;9.25;6.75;;;;;21.24;59.73;100367.69;5063034;28;45347;-49
2022/11/06 08:34:44;;;;;;;;;8.50;5.00;;;;;21.25;59.71;100369.41;5062245;28;58202;-52
2022/11/06 08:37:10;;;;;;;;;9.50;7.00;;;;;21.25;59.42;100366.75;5024881;28;45358;-49
2022/11/06 08:39:35;;;;;;;;;8.75;5.50;;;;;21.25;59.35;100369.41;5057931;28;45161;-50
2022/11/06 08:42:01;;;;;;;;;7.25;7.00;;;;;21.26;59.18;100375.56;5061820;28;45233;-48
2022/11/06 08:44:26;;;;;;;;;13.25;7.25;;;;;21.27;59.38;100377.34;5048859;28;45463;-47
2022/11/06 08:46:51;;;;;;;;;8.75;7.25;;;;;21.27;59.44;100383.50;5061529;28;45623;-52
2022/11/06 08:49:17;;;;;;;;;6.25;5.75;;;;;21.25;56.56;100374.72;5062297;28;45321;-50
2022/11/06 08:51:42;;;;;;;;;9.00;6.00;;;;;21.14;56.08;100379.59;5059166;28;53600;-50
2022/11/06 08:54:09;;;;;;;;;5.50;4.50;;;;;20.99;54.91;100386.38;5054975;28;46210;-51
2022/11/06 08:56:34;;;;;;;;;7.00;4.25;;;;;20.87;57.89;100385.06;5053765;28;45398;-49
2022/11/06 08:59:00;;;;;;;;;5.75;5.50;;;;;20.88;57.70;100378.84;5061858;28;45207;-48
2022/11/06 09:01:25;;;;;;;;;10.25;6.75;;;;;20.91;57.75;100375.19;5056202;28;69654;-49
2022/11/06 09:03:51;;;;;;;;;8.50;7.50;;;;;20.96;58.13;100383.84;5060454;28;47227;-50
2022/11/06 09:06:16;;;;;;;;;9.00;6.25;;;;;21.00;58.72;100373.97;5061331;28;45342;-47
2022/11/06 09:08:41;;;;;;;;;7.00;4.00;;;;;21.04;58.01;100367.63;5062307;28;50503;-50
2022/11/06 09:11:07;;;;;;;;;6.00;5.00;;;;;21.07;58.33;100360.41;5061512;28;57743;-48
2022/11/06 09:13:32;;;;;;;;;6.00;5.00;;;;;21.11;58.47;100361.13;5061788;28;45474;-49
2022/11/06 09:15:59;;;;;;;;;6.50;6.50;;;;;21.15;58.61;100354.78;5062316;28;45181;-51
2022/11/06 09:18:24;;;;;;;;;6.50;5.00;;;;;21.17;59.24;100347.63;5044728;28;45335;-48
2022/11/06 09:20:54;;;;;;;;;6.00;6.00;;;;;21.20;58.72;100352.81;5060552;28;45496;-51
2022/11/06 09:23:19;;;;;;;;;9.50;6.00;;;;;21.23;58.62;100334.09;5060513;28;45289;-53
2022/11/06 09:25:44;;;;;;;;;5.75;4.50;;;;;21.26;58.29;100328.66;5059612;28;45508;-49
2022/11/06 09:28:10;;;;;;;;;8.75;5.00;;;;;21.27;58.74;100316.28;5060058;28;58154;-49
2022/11/06 09:30:36;;;;;;;;;6.75;6.50;;;;;21.28;58.45;100300.28;5058617;28;72132;-47
2022/11/06 09:33:01;;;;;;;;;8.00;6.50;;;;;21.27;56.61;100290.59;5059688;28;45493;-43
2022/11/06 09:35:29;;;;;;;;;6.50;5.00;;;;;21.22;55.82;100286.41;5062085;28;45675;-41
2022/11/06 09:38:02;;;;;;;;;6.00;5.50;;;;;21.07;54.22;100293.19;5062054;28;45233;-40
2022/11/06 09:40:54;;;;;;;;;11.75;7.00;;;;;20.88;54.51;100296.59;5060501;28;45397;-39
2022/11/06 09:43:32;;;;;;;;;6.50;5.75;;;;;20.74;53.91;100295.41;5041414;28;45410;-39
2022/11/06 09:46:07;;;;;;;;;5.25;5.00;;;;;20.63;53.89;100292.34;5059845;28;45331;-41
2022/11/06 09:48:43;;;;;;;;;8.00;7.00;;;;;20.53;53.23;100292.69;5060956;28;45404;-40
2022/11/06 09:51:23;;;;;;;;;5.25;4.25;;;;;20.38;53.16;100281.78;5060569;28;45543;-41
2022/11/06 09:53:55;;;;;;;;;3.75;3.75;;;;;20.29;53.99;100312.16;5060482;28;45562;-40
2022/11/06 09:56:24;;;;;;;;;7.00;7.00;;;;;20.31;54.70;100292.63;5060680;28;46125;-41
2022/11/06 09:58:49;;;;;;;;;7.25;7.25;;;;;20.39;54.88;100288.81;5059762;28;45473;-39
2022/11/06 10:01:22;;;;;;;;;7.00;5.75;;;;;20.46;55.53;100285.03;5043219;28;54408;-40
2022/11/06 10:03:52;;;;;;;;;7.00;7.00;;;;;20.54;55.68;100275.00;5059426;28;46085;-40
2022/11/06 10:06:19;;;;;;;;;4.75;4.75;;;;;20.62;55.50;100280.00;5060076;28;45272;-39
2022/11/06 10:08:44;;;;;;;;;10.00;6.75;;;;;20.68;55.56;100272.69;5060837;28;45496;-40
2022/11/06 10:11:12;;;;;;;;;6.00;5.50;;;;;20.74;55.47;100275.06;5041252;28;45583;-45
2022/11/06 10:13:50;;;;;;;;;7.50;6.50;;;;;20.79;55.83;100280.19;5061466;28;46299;-45
2022/11/06 10:16:43;;;;;;;;;8.00;7.00;;;;;20.85;55.90;100274.66;5061896;28;45299;-44
2022/11/06 10:19:40;;;;;;;;;9.00;7.25;;;;;20.88;55.89;100275.38;5052238;28;45492;-43
2022/11/06 10:22:15;;;;;;;;;13.75;9.75;;;;;20.91;56.19;100265.56;5059890;28;45356;-46
2022/11/06 10:24:52;;;;;;;;;6.75;6.00;;;;;20.92;55.89;100264.63;5061605;28;47038;-46
2022/11/06 10:27:27;;;;;;;;;10.00;8.00;;;;;20.94;56.07;100274.28;5049768;28;45303;-43
2022/11/06 10:30:19;;;;;;;;;7.25;5.50;;;;;20.95;56.13;100265.41;5058794;28;45279;-48
2022/11/06 10:33:06;;;;;;;;;7.00;6.00;;;;;20.96;55.92;100274.22;5059076;28;45455;-42
2022/11/06 10:35:38;;;;;;;;;6.75;6.00;;;;;20.97;55.67;100268.84;5042170;28;45718;-41
2022/11/06 10:38:08;;;;;;;;;4.00;3.50;;;;;20.97;55.96;100274.16;5046009;28;45353;-39
2022/11/06 10:40:34;;;;;;;;;5.50;5.50;;;;;20.99;55.62;100287.34;5043658;28;45346;-42
2022/11/06 10:43:14;;;;;;;;;9.50;5.50;;;;;21.00;56.01;100286.41;5044921;28;45404;-44
2022/11/06 10:45:40;;;;;;;;;10.75;6.00;;;;;21.04;56.03;100280.06;5059596;28;46256;-42
2022/11/06 10:48:27;;;;;;;;;8.00;7.00;;;;;21.06;56.05;100275.56;5041003;28;45344;-42
2022/11/06 10:51:25;;;;;;;;;11.25;6.50;;;;;21.08;55.94;100268.38;5059233;28;45258;-41
2022/11/06 10:53:56;;;;;;;;;5.00;4.25;;;;;21.08;55.78;100253.31;5061244;28;45307;-43
2022/11/06 10:56:46;;;;;;;;;9.25;6.00;;;;;21.08;55.87;100257.78;5060204;28;45414;-46
2022/11/06 10:59:12;;;;;;;;;8.50;5.25;;;;;21.08;55.94;100241.84;5061354;28;45182;-45
2022/11/06 11:01:37;;;;;;;;;7.00;6.00;;;;;21.08;55.97;100236.56;5043005;28;45431;-43
2022/11/06 11:04:03;;;;;;;;;8.50;7.00;;;;;21.10;56.15;100237.34;5059955;28;45302;-43
2022/11/06 11:06:28;;;;;;;;;6.25;3.50;;;;;21.11;56.45;100233.75;5058824;28;45815;-42
2022/11/06 11:08:53;;;;;;;;;7.25;7.00;;;;;21.12;55.75;100222.25;5059703;28;52288;-44
2022/11/06 11:11:25;;;;;;;;;9.50;6.00;;;;;21.10;56.12;100219.63;5059113;28;45689;-44
2022/11/06 11:14:00;;;;;;;;;4.25;4.00;;;;;21.12;56.01;100230.19;5043959;28;46315;-45
2022/11/06 11:16:31;;;;;;;;;6.75;5.00;;;;;21.13;56.58;100226.63;5060961;28;45322;-44
2022/11/06 11:19:12;;;;;;;;;6.00;5.75;;;;;21.12;56.45;100224.91;5058847;28;45388;-45
2022/11/06 11:21:38;;;;;;;;;6.00;6.00;;;;;21.13;56.18;100237.22;5044120;28;45401;-41
2022/11/06 11:24:08;;;;;;;;;9.25;5.75;;;;;21.11;55.91;100220.50;5041794;28;67378;-40
2022/11/06 11:26:41;;;;;;;;;7.50;6.50;;;;;21.11;56.11;100224.03;5059064;28;45487;-41
2022/11/06 11:29:40;;;;;;;;;5.50;5.50;;;;;21.11;55.90;100218.72;5058274;28;45369;-44
2022/11/06 11:32:05;;;;;;;;;8.75;7.00;;;;;21.14;56.36;100212.41;5033248;28;45342;-47
2022/11/06 11:34:33;;;;;;;;;8.75;4.50;;;;;21.16;56.24;100210.56;5060377;28;45469;-48
2022/11/06 11:37:05;;;;;;;;;5.25;4.25;;;;;21.17;55.79;100189.25;5058902;28;46333;-45
2022/11/06 11:39:34;;;;;;;;;8.00;5.00;;;;;21.18;55.79;100171.53;5057679;28;45282;-44